createdAt,value
2019-04-06T07:46:46.932Z,-59
2019-04-06T07:51:48.385Z,-59
2019-04-06T07:54:36.140Z,-59
2019-04-06T08:00:14.007Z,-60
2019-04-06T08:04:22.180Z,-62
2019-04-06T08:08:33.033Z,-59
2019-04-06T08:12:39.777Z,-62
2019-04-06T08:16:46.627Z,-64
2019-04-06T08:19:29.416Z,-63
2019-04-06T08:23:39.406Z,-64
2019-04-06T08:25:44.653Z,-65
2019-04-06T08:34:20.545Z,-54
2019-04-06T08:35:27.132Z,-61
2019-04-06T08:39:35.210Z,-56
2019-04-06T08:43:36.658Z,-55
2019-04-06T08:48:38.555Z,-69
2019-04-06T08:54:30.361Z,-69
2019-04-06T08:58:24.775Z,-65
2019-04-06T09:02:56.060Z,-67
2019-04-06T09:08:48.399Z,-66
2019-04-06T09:12:43.896Z,-67
2019-04-06T09:16:47.012Z,-64
2019-04-06T09:20:50.991Z,-68
2019-04-06T09:24:54.567Z,-65
2019-04-06T09:29:00.712Z,-67
2019-04-06T09:34:02.250Z,-66
2019-04-06T09:38:03.338Z,-68
2019-04-06T09:43:02.709Z,-68
2019-04-06T09:46:59.713Z,-69
2019-04-06T09:51:20.476Z,-68
2019-04-06T09:56:08.441Z,-65
2019-04-06T10:00:19.877Z,-66
2019-04-06T10:04:47.904Z,-65
2019-04-06T10:09:31.590Z,-66
2019-04-06T10:14:45.180Z,-66
2019-04-06T10:19:14.866Z,-66
2019-04-06T10:27:33.234Z,-66
2019-04-06T10:31:44.086Z,-67
2019-04-06T10:36:13.468Z,-66
2019-04-06T10:40:30.361Z,-68
2019-04-06T10:45:14.956Z,-68
2019-04-06T10:50:37.600Z,-66
2019-04-06T10:54:58.103Z,-67
2019-04-06T11:01:11.143Z,-70
2019-04-06T11:09:07.897Z,-68
2019-04-06T11:13:20.540Z,-67
2019-04-06T11:17:47.801Z,-66
2019-04-06T11:26:09.676Z,-69
2019-04-06T11:30:47.712Z,-66
2019-04-06T11:42:53.135Z,-69
2019-04-06T11:47:34.204Z,-69
2019-04-06T11:51:53.572Z,-67
2019-04-06T11:59:57.342Z,-70
2019-04-06T12:04:03.119Z,-69
2019-04-06T12:14:25.459Z,-68
2019-04-06T12:28:27.183Z,-69
2019-04-06T12:32:37.891Z,-68
2019-04-06T12:36:56.930Z,-68
2019-04-06T12:45:33.704Z,-67
2019-04-06T12:53:38.615Z,-67
2019-04-06T13:03:40.946Z,-70
2019-04-06T13:07:51.792Z,-69
2019-04-06T13:12:08.122Z,-68
2019-04-06T13:24:13.649Z,-68
2019-04-06T13:28:34.634Z,-69
2019-04-06T13:32:48.392Z,-70
2019-04-06T13:37:07.566Z,-68
2019-04-06T13:41:37.184Z,-67
2019-04-06T14:18:27.522Z,-67
2019-04-06T14:22:39.730Z,-67
2019-04-06T14:30:47.385Z,-67
2019-04-06T14:40:43.536Z,-67
2019-04-06T14:46:08.894Z,-69
2019-04-06T14:50:24.266Z,-69
2019-04-06T14:54:35.459Z,-67
2019-04-06T15:06:39.647Z,-66
2019-04-06T15:24:39.002Z,-67
2019-04-06T15:28:49.712Z,-68
2019-04-06T15:33:15.449Z,-66
2019-04-06T15:37:33.232Z,-71
2019-04-06T15:41:57.879Z,-68
2019-04-06T15:47:11.275Z,-69
2019-04-06T15:51:35.720Z,-67
2019-04-06T15:56:17.778Z,-65
2019-04-06T16:00:48.691Z,-66
2019-04-06T16:07:00.610Z,-68
2019-04-06T16:11:37.818Z,-69
2019-04-06T16:16:07.161Z,-66
2019-04-06T16:21:14.510Z,-66
2019-04-06T16:27:21.473Z,-67
2019-04-06T16:33:40.157Z,-67
2019-04-06T16:38:11.463Z,-70
2019-04-06T16:46:18.335Z,-68
2019-04-06T16:50:32.966Z,-66
2019-04-06T16:55:03.193Z,-67
2019-04-06T16:59:20.130Z,-69
2019-04-06T17:05:29.147Z,-69
2019-04-06T17:13:34.376Z,-66
2019-04-06T17:19:34.811Z,-65
2019-04-06T17:23:56.128Z,-65
2019-04-06T17:28:10.092Z,-67
2019-04-06T17:34:23.547Z,-68
2019-04-06T17:40:52.554Z,-65
2019-04-06T17:48:49.962Z,-67
2019-04-06T17:53:28.134Z,-68
2019-04-06T17:58:17.519Z,-67
2019-04-06T18:02:50.954Z,-69
2019-04-06T18:07:15.092Z,-68
2019-04-06T18:11:59.699Z,-68
2019-04-06T18:18:15.523Z,-68
2019-04-06T18:22:11.009Z,-69
2019-04-06T18:34:09.459Z,-71
2019-04-06T18:41:54.492Z,-71
2019-04-06T18:45:49.093Z,-69
2019-04-06T18:49:52.362Z,-68
2019-04-06T18:53:59.587Z,-70
2019-04-06T18:58:12.876Z,-69
2019-04-06T19:04:10.365Z,-68
2019-04-06T19:12:21.295Z,-69
2019-04-06T19:16:18.491Z,-68
2019-04-06T19:20:21.302Z,-66
2019-04-06T19:24:24.884Z,-67
2019-04-06T19:28:28.500Z,-67
2019-04-06T19:32:36.419Z,-70
2019-04-06T19:36:39.511Z,-69
2019-04-06T19:54:41.394Z,-69
2019-04-06T20:00:31.003Z,-69
2019-04-06T20:04:29.811Z,-71
2019-04-06T20:10:31.706Z,-70
2019-04-06T20:22:21.617Z,-70
2019-04-06T20:26:16.293Z,-68
2019-04-06T20:30:23.000Z,-68
2019-04-06T20:34:28.856Z,-67
2019-04-06T20:44:31.457Z,-68
2019-04-06T21:21:02.989Z,-67
2019-04-06T21:32:51.369Z,-70
2019-04-06T21:36:46.108Z,-69
2019-04-06T22:17:15.269Z,-66
2019-04-06T22:31:02.712Z,-67
2019-04-06T22:40:48.539Z,-68
2019-04-06T22:44:44.220Z,-68
2019-04-06T22:54:38.097Z,-69
2019-04-06T22:58:32.454Z,-69
2019-04-06T23:14:28.405Z,-68
2019-04-06T23:18:23.064Z,-68
2019-04-06T23:22:26.282Z,-67
2019-04-06T23:26:34.418Z,-71
2019-04-06T23:38:31.480Z,-70
2019-04-06T23:42:26.127Z,-69
